createdAt,value
2023-11-26T00:13:32.159Z,-1.41
2023-11-26T00:43:35.825Z,-1.47
2023-11-26T01:13:39.054Z,-1.62
2023-11-26T01:43:42.355Z,-1.89
2023-11-26T02:13:45.907Z,-2.25
2023-11-26T02:43:49.478Z,-2.48
2023-11-26T03:13:52.948Z,-2.69
2023-11-26T03:43:56.423Z,-2.99
2023-11-26T04:13:59.535Z,-3.29
2023-11-26T04:44:02.567Z,-3.47
2023-11-26T05:14:06.803Z,-3.71
2023-11-26T05:44:09.771Z,-3.90
2023-11-26T06:14:13.763Z,-4.09
2023-11-26T06:44:16.640Z,-4.22
2023-11-26T07:14:20.415Z,-4.07
2023-11-26T07:44:23.377Z,-3.74
2023-11-26T08:14:27.658Z,-3.33
2023-11-26T08:44:30.566Z,-2.91
2023-11-26T09:14:34.139Z,-2.46
2023-11-26T09:44:36.970Z,-2.36
2023-11-26T10:14:40.885Z,-2.12
2023-11-26T10:44:43.817Z,-1.96
2023-11-26T11:14:47.750Z,-1.82
2023-11-26T11:44:50.863Z,-1.81
2023-11-26T12:14:54.549Z,-1.86
2023-11-26T12:44:57.552Z,-1.87
2023-11-26T13:15:01.622Z,-2.02
2023-11-26T13:45:10.566Z,-2.29
2023-11-26T14:15:17.989Z,-2.39
2023-11-26T14:45:20.945Z,-2.66
2023-11-26T15:15:25.015Z,-2.93
2023-11-26T15:45:28.142Z,-2.86
2023-11-26T16:15:32.006Z,-3.02
2023-11-26T16:45:35.111Z,-3.09
2023-11-26T17:15:38.753Z,-3.36
2023-11-26T17:45:41.947Z,-3.37
2023-11-26T18:15:46.018Z,-3.28
2023-11-26T18:45:49.187Z,-3.26
2023-11-26T19:15:53.238Z,-3.33
2023-11-26T19:45:56.343Z,-3.34
2023-11-26T20:16:00.613Z,-3.30
2023-11-26T20:46:04.058Z,-3.37
2023-11-26T21:16:08.228Z,-3.37
2023-11-26T21:46:11.428Z,-3.70
2023-11-26T22:16:15.090Z,-3.97
2023-11-26T22:46:19.021Z,-4.16
2023-11-26T23:16:22.868Z,-3.86
2023-11-26T23:46:25.950Z,-3.60
